sensor_id;sensor_type;location;lat;lon;timestamp;temperature;humidity
22795;DHT22;11564;50.920;11.612;2022-10-12T00:01:06;2.20;99.90
22795;DHT22;11564;50.920;11.612;2022-10-12T00:03:32;2.20;99.90
22795;DHT22;11564;50.920;11.612;2022-10-12T00:06:02;2.20;99.90
22795;DHT22;11564;50.920;11.612;2022-10-12T00:08:29;2.10;99.90
22795;DHT22;11564;50.920;11.612;2022-10-12T00:10:55;2.10;99.90
22795;DHT22;11564;50.920;11.612;2022-10-12T00:13:20;2.10;99.90
22795;DHT22;11564;50.920;11.612;2022-10-12T00:15:46;2.10;99.90
22795;DHT22;11564;50.920;11.612;2022-10-12T00:18:11;2.10;99.90
22795;DHT22;11564;50.920;11.612;2022-10-12T00:20:38;2.10;99.90
22795;DHT22;11564;50.920;11.612;2022-10-12T00:23:03;2.10;99.90
22795;DHT22;11564;50.920;11.612;2022-10-12T00:25:29;2.00;99.90
22795;DHT22;11564;50.920;11.612;2022-10-12T00:27:55;1.90;99.90
22795;DHT22;11564;50.920;11.612;2022-10-12T00:30:21;1.90;99.90
22795;DHT22;11564;50.920;11.612;2022-10-12T00:32:46;1.90;99.90
22795;DHT22;11564;50.920;11.612;2022-10-12T00:35:12;1.90;99.90
22795;DHT22;11564;50.920;11.612;2022-10-12T00:37:37;1.90;99.90
22795;DHT22;11564;50.920;11.612;2022-10-12T00:40:03;1.80;99.90
22795;DHT22;11564;50.920;11.612;2022-10-12T00:42:29;1.90;99.90
22795;DHT22;11564;50.920;11.612;2022-10-12T00:44:55;1.80;99.90
22795;DHT22;11564;50.920;11.612;2022-10-12T00:47:25;1.80;99.90
22795;DHT22;11564;50.920;11.612;2022-10-12T00:49:59;1.80;99.90
22795;DHT22;11564;50.920;11.612;2022-10-12T00:52:54;1.70;99.90
22795;DHT22;11564;50.920;11.612;2022-10-12T00:55:21;1.70;99.90
22795;DHT22;11564;50.920;11.612;2022-10-12T00:57:50;1.70;99.90
22795;DHT22;11564;50.920;11.612;2022-10-12T01:00:18;1.60;99.90
22795;DHT22;11564;50.920;11.612;2022-10-12T01:02:45;1.60;99.90
22795;DHT22;11564;50.920;11.612;2022-10-12T01:05:12;1.60;99.90
22795;DHT22;11564;50.920;11.612;2022-10-12T01:07:39;1.60;99.90
22795;DHT22;11564;50.920;11.612;2022-10-12T01:10:05;1.60;99.90
22795;DHT22;11564;50.920;11.612;2022-10-12T01:12:31;1.60;99.90
22795;DHT22;11564;50.920;11.612;2022-10-12T01:14:57;1.60;99.90
22795;DHT22;11564;50.920;11.612;2022-10-12T01:17:39;1.60;99.90
22795;DHT22;11564;50.920;11.612;2022-10-12T01:31:07;1.40;99.90
22795;DHT22;11564;50.920;11.612;2022-10-12T01:33:41;1.40;99.90
22795;DHT22;11564;50.920;11.612;2022-10-12T01:41:50;1.40;99.90
22795;DHT22;11564;50.920;11.612;2022-10-12T01:44:22;1.50;99.90
22795;DHT22;11564;50.920;11.612;2022-10-12T01:46:48;1.50;99.90
22795;DHT22;11564;50.920;11.612;2022-10-12T01:49:15;1.40;99.90
22795;DHT22;11564;50.920;11.612;2022-10-12T01:54:55;1.30;99.90
22795;DHT22;11564;50.920;11.612;2022-10-12T01:57:45;1.30;99.90
22795;DHT22;11564;50.920;11.612;2022-10-12T02:00:14;1.30;99.90
22795;DHT22;11564;50.920;11.612;2022-10-12T02:05:43;1.30;99.90
22795;DHT22;11564;50.920;11.612;2022-10-12T02:08:33;1.20;99.90
22795;DHT22;11564;50.920;11.612;2022-10-12T02:11:08;1.30;99.90
22795;DHT22;11564;50.920;11.612;2022-10-12T02:13:39;1.40;99.90
22795;DHT22;11564;50.920;11.612;2022-10-12T02:16:12;1.40;99.90
22795;DHT22;11564;50.920;11.612;2022-10-12T02:18:42;1.40;99.90
22795;DHT22;11564;50.920;11.612;2022-10-12T02:21:11;1.50;99.90
22795;DHT22;11564;50.920;11.612;2022-10-12T02:23:38;1.50;99.90
22795;DHT22;11564;50.920;11.612;2022-10-12T02:26:04;1.60;99.90
22795;DHT22;11564;50.920;11.612;2022-10-12T02:28:31;1.60;99.90
22795;DHT22;11564;50.920;11.612;2022-10-12T02:31:26;1.70;99.90
22795;DHT22;11564;50.920;11.612;2022-10-12T02:34:22;1.70;99.90
22795;DHT22;11564;50.920;11.612;2022-10-12T02:39:26;1.90;99.90
22795;DHT22;11564;50.920;11.612;2022-10-12T02:41:57;2.00;99.90
22795;DHT22;11564;50.920;11.612;2022-10-12T02:44:31;2.10;99.90
22795;DHT22;11564;50.920;11.612;2022-10-12T02:46:59;2.10;99.90
22795;DHT22;11564;50.920;11.612;2022-10-12T02:49:27;2.10;99.90
22795;DHT22;11564;50.920;11.612;2022-10-12T02:51:55;2.20;99.90
22795;DHT22;11564;50.920;11.612;2022-10-12T02:54:22;2.20;99.90
22795;DHT22;11564;50.920;11.612;2022-10-12T02:56:48;2.20;99.90
22795;DHT22;11564;50.920;11.612;2022-10-12T02:59:15;2.20;99.90
22795;DHT22;11564;50.920;11.612;2022-10-12T03:01:41;2.10;99.90
22795;DHT22;11564;50.920;11.612;2022-10-12T03:04:06;2.10;99.90
22795;DHT22;11564;50.920;11.612;2022-10-12T03:06:32;2.10;99.90
22795;DHT22;11564;50.920;11.612;2022-10-12T03:08:58;2.20;99.90
22795;DHT22;11564;50.920;11.612;2022-10-12T03:11:23;2.20;99.90
22795;DHT22;11564;50.920;11.612;2022-10-12T03:13:55;2.20;99.90
22795;DHT22;11564;50.920;11.612;2022-10-12T03:16:22;2.20;99.90
22795;DHT22;11564;50.920;11.612;2022-10-12T03:18:48;2.10;99.90
22795;DHT22;11564;50.920;11.612;2022-10-12T03:21:14;2.00;99.90
22795;DHT22;11564;50.920;11.612;2022-10-12T03:23:39;1.90;99.90
22795;DHT22;11564;50.920;11.612;2022-10-12T03:26:05;1.90;99.90
22795;DHT22;11564;50.920;11.612;2022-10-12T03:28:31;1.80;99.90
22795;DHT22;11564;50.920;11.612;2022-10-12T03:30:58;1.80;99.90
22795;DHT22;11564;50.920;11.612;2022-10-12T03:33:24;1.80;99.90
22795;DHT22;11564;50.920;11.612;2022-10-12T03:35:49;1.70;99.90
22795;DHT22;11564;50.920;11.612;2022-10-12T03:38:16;1.60;99.90
22795;DHT22;11564;50.920;11.612;2022-10-12T03:40:43;1.60;99.90
22795;DHT22;11564;50.920;11.612;2022-10-12T03:43:09;1.60;99.90
22795;DHT22;11564;50.920;11.612;2022-10-12T03:45:35;1.50;99.90
22795;DHT22;11564;50.920;11.612;2022-10-12T03:48:01;1.50;99.90
22795;DHT22;11564;50.920;11.612;2022-10-12T03:50:26;1.40;99.90
22795;DHT22;11564;50.920;11.612;2022-10-12T03:52:53;1.40;99.90
22795;DHT22;11564;50.920;11.612;2022-10-12T03:55:19;1.30;99.90
22795;DHT22;11564;50.920;11.612;2022-10-12T03:57:48;1.30;99.90
22795;DHT22;11564;50.920;11.612;2022-10-12T04:00:14;1.30;99.90
22795;DHT22;11564;50.920;11.612;2022-10-12T04:03:06;1.20;99.90
22795;DHT22;11564;50.920;11.612;2022-10-12T04:05:34;1.20;99.90
22795;DHT22;11564;50.920;11.612;2022-10-12T04:08:01;1.20;99.90
22795;DHT22;11564;50.920;11.612;2022-10-12T04:10:27;1.10;99.90
22795;DHT22;11564;50.920;11.612;2022-10-12T04:12:53;1.10;99.90
22795;DHT22;11564;50.920;11.612;2022-10-12T04:15:18;1.10;99.90
22795;DHT22;11564;50.920;11.612;2022-10-12T04:17:44;1.10;99.90
22795;DHT22;11564;50.920;11.612;2022-10-12T04:20:10;1.10;99.90
22795;DHT22;11564;50.920;11.612;2022-10-12T04:22:37;1.10;99.90
22795;DHT22;11564;50.920;11.612;2022-10-12T04:25:03;1.10;99.90
22795;DHT22;11564;50.920;11.612;2022-10-12T04:27:29;1.20;99.90
22795;DHT22;11564;50.920;11.612;2022-10-12T04:29:54;1.30;99.90
22795;DHT22;11564;50.920;11.612;2022-10-12T04:32:20;1.30;99.90
22795;DHT22;11564;50.920;11.612;2022-10-12T04:34:45;1.40;99.90
22795;DHT22;11564;50.920;11.612;2022-10-12T04:37:11;1.40;99.90
22795;DHT22;11564;50.920;11.612;2022-10-12T04:39:37;1.40;99.90
22795;DHT22;11564;50.920;11.612;2022-10-12T04:42:02;1.50;99.90
22795;DHT22;11564;50.920;11.612;2022-10-12T04:44:28;1.60;99.90
22795;DHT22;11564;50.920;11.612;2022-10-12T04:46:54;1.70;99.90
22795;DHT22;11564;50.920;11.612;2022-10-12T04:49:19;1.80;99.90
22795;DHT22;11564;50.920;11.612;2022-10-12T04:51:45;1.80;99.90
22795;DHT22;11564;50.920;11.612;2022-10-12T04:54:10;1.90;99.90
22795;DHT22;11564;50.920;11.612;2022-10-12T04:56:36;1.90;99.90
22795;DHT22;11564;50.920;11.612;2022-10-12T04:59:02;2.00;99.90
22795;DHT22;11564;50.920;11.612;2022-10-12T05:01:27;2.00;99.90
22795;DHT22;11564;50.920;11.612;2022-10-12T05:03:53;1.90;99.90
22795;DHT22;11564;50.920;11.612;2022-10-12T05:06:19;1.70;99.90
22795;DHT22;11564;50.920;11.612;2022-10-12T05:08:44;1.70;99.90
22795;DHT22;11564;50.920;11.612;2022-10-12T05:11:10;1.90;99.90
22795;DHT22;11564;50.920;11.612;2022-10-12T05:13:36;1.80;99.90
22795;DHT22;11564;50.920;11.612;2022-10-12T05:16:01;1.80;99.90
22795;DHT22;11564;50.920;11.612;2022-10-12T05:18:27;1.80;99.90
22795;DHT22;11564;50.920;11.612;2022-10-12T05:20:52;1.70;99.90
22795;DHT22;11564;50.920;11.612;2022-10-12T05:23:18;1.80;99.90
22795;DHT22;11564;50.920;11.612;2022-10-12T05:25:43;1.80;99.90
22795;DHT22;11564;50.920;11.612;2022-10-12T05:28:09;1.80;99.90
22795;DHT22;11564;50.920;11.612;2022-10-12T05:30:34;1.80;99.90
22795;DHT22;11564;50.920;11.612;2022-10-12T05:33:00;1.80;99.90
22795;DHT22;11564;50.920;11.612;2022-10-12T05:35:26;1.80;99.90
22795;DHT22;11564;50.920;11.612;2022-10-12T05:37:51;1.70;99.90
22795;DHT22;11564;50.920;11.612;2022-10-12T05:40:17;1.80;99.90
22795;DHT22;11564;50.920;11.612;2022-10-12T05:42:43;1.80;99.90
22795;DHT22;11564;50.920;11.612;2022-10-12T05:45:10;1.90;99.90
22795;DHT22;11564;50.920;11.612;2022-10-12T05:47:35;2.00;99.90
22795;DHT22;11564;50.920;11.612;2022-10-12T05:50:01;2.10;99.90
22795;DHT22;11564;50.920;11.612;2022-10-12T05:52:27;2.10;99.90
22795;DHT22;11564;50.920;11.612;2022-10-12T05:54:52;2.20;99.90
22795;DHT22;11564;50.920;11.612;2022-10-12T05:57:18;2.20;99.90
22795;DHT22;11564;50.920;11.612;2022-10-12T05:59:43;2.30;99.90
22795;DHT22;11564;50.920;11.612;2022-10-12T06:02:13;2.20;99.90
22795;DHT22;11564;50.920;11.612;2022-10-12T06:04:39;2.20;99.90
22795;DHT22;11564;50.920;11.612;2022-10-12T06:07:05;2.20;99.90
22795;DHT22;11564;50.920;11.612;2022-10-12T06:09:31;2.30;99.90
22795;DHT22;11564;50.920;11.612;2022-10-12T06:11:56;2.30;99.90
22795;DHT22;11564;50.920;11.612;2022-10-12T06:14:22;2.30;99.90
22795;DHT22;11564;50.920;11.612;2022-10-12T06:16:48;2.30;99.90
22795;DHT22;11564;50.920;11.612;2022-10-12T06:19:13;2.20;99.90
22795;DHT22;11564;50.920;11.612;2022-10-12T06:21:39;2.20;99.90
22795;DHT22;11564;50.920;11.612;2022-10-12T06:24:04;2.30;99.90
22795;DHT22;11564;50.920;11.612;2022-10-12T06:26:30;2.40;99.90
22795;DHT22;11564;50.920;11.612;2022-10-12T06:28:56;2.40;99.90
22795;DHT22;11564;50.920;11.612;2022-10-12T06:31:22;2.40;99.90
22795;DHT22;11564;50.920;11.612;2022-10-12T06:33:47;2.60;99.90
22795;DHT22;11564;50.920;11.612;2022-10-12T06:36:15;2.60;99.90
22795;DHT22;11564;50.920;11.612;2022-10-12T06:38:40;2.50;99.90
22795;DHT22;11564;50.920;11.612;2022-10-12T06:41:06;2.50;99.90
22795;DHT22;11564;50.920;11.612;2022-10-12T06:43:32;2.60;99.90
22795;DHT22;11564;50.920;11.612;2022-10-12T06:46:01;2.60;99.90
22795;DHT22;11564;50.920;11.612;2022-10-12T06:48:28;2.50;99.90
22795;DHT22;11564;50.920;11.612;2022-10-12T06:50:53;2.60;99.90
22795;DHT22;11564;50.920;11.612;2022-10-12T06:53:19;2.80;99.90
22795;DHT22;11564;50.920;11.612;2022-10-12T06:55:44;2.90;99.90
22795;DHT22;11564;50.920;11.612;2022-10-12T06:58:10;2.80;99.90
22795;DHT22;11564;50.920;11.612;2022-10-12T07:00:36;2.80;99.90
22795;DHT22;11564;50.920;11.612;2022-10-12T07:03:02;2.80;99.90
22795;DHT22;11564;50.920;11.612;2022-10-12T07:05:28;3.10;99.90
22795;DHT22;11564;50.920;11.612;2022-10-12T07:07:54;3.30;99.90
22795;DHT22;11564;50.920;11.612;2022-10-12T07:10:20;3.60;99.90
22795;DHT22;11564;50.920;11.612;2022-10-12T07:12:46;3.30;99.90
22795;DHT22;11564;50.920;11.612;2022-10-12T07:15:11;3.30;99.90
22795;DHT22;11564;50.920;11.612;2022-10-12T07:17:37;3.40;99.90
22795;DHT22;11564;50.920;11.612;2022-10-12T07:20:03;3.60;99.90
22795;DHT22;11564;50.920;11.612;2022-10-12T07:22:28;3.90;99.90
22795;DHT22;11564;50.920;11.612;2022-10-12T07:24:54;4.30;99.90
22795;DHT22;11564;50.920;11.612;2022-10-12T07:27:20;4.50;99.90
22795;DHT22;11564;50.920;11.612;2022-10-12T07:29:45;4.80;99.90
22795;DHT22;11564;50.920;11.612;2022-10-12T07:32:11;5.10;99.90
22795;DHT22;11564;50.920;11.612;2022-10-12T07:34:37;5.30;99.90
22795;DHT22;11564;50.920;11.612;2022-10-12T07:37:02;5.40;99.90
22795;DHT22;11564;50.920;11.612;2022-10-12T07:39:28;5.20;99.90
22795;DHT22;11564;50.920;11.612;2022-10-12T07:41:54;5.00;99.90
22795;DHT22;11564;50.920;11.612;2022-10-12T07:44:20;5.10;99.90
22795;DHT22;11564;50.920;11.612;2022-10-12T07:46:47;5.40;99.90
22795;DHT22;11564;50.920;11.612;2022-10-12T07:49:13;5.70;99.90
22795;DHT22;11564;50.920;11.612;2022-10-12T07:51:40;5.80;99.90
22795;DHT22;11564;50.920;11.612;2022-10-12T07:54:06;5.90;99.90
22795;DHT22;11564;50.920;11.612;2022-10-12T07:56:32;6.10;99.90
22795;DHT22;11564;50.920;11.612;2022-10-12T07:58:58;5.80;99.90
22795;DHT22;11564;50.920;11.612;2022-10-12T08:01:26;5.40;99.90
22795;DHT22;11564;50.920;11.612;2022-10-12T08:03:54;5.50;99.90
22795;DHT22;11564;50.920;11.612;2022-10-12T08:06:21;6.00;99.90
22795;DHT22;11564;50.920;11.612;2022-10-12T08:08:47;6.20;99.90
22795;DHT22;11564;50.920;11.612;2022-10-12T08:11:13;6.20;99.90
22795;DHT22;11564;50.920;11.612;2022-10-12T08:13:40;6.10;99.90
22795;DHT22;11564;50.920;11.612;2022-10-12T08:16:09;6.10;99.90
22795;DHT22;11564;50.920;11.612;2022-10-12T08:18:35;5.90;99.90
22795;DHT22;11564;50.920;11.612;2022-10-12T08:21:05;6.20;99.90
22795;DHT22;11564;50.920;11.612;2022-10-12T08:23:32;6.50;99.90
22795;DHT22;11564;50.920;11.612;2022-10-12T08:25:57;6.30;99.90
22795;DHT22;11564;50.920;11.612;2022-10-12T08:28:23;6.10;99.90
22795;DHT22;11564;50.920;11.612;2022-10-12T08:30:49;6.30;99.90
22795;DHT22;11564;50.920;11.612;2022-10-12T08:33:16;6.30;99.90
22795;DHT22;11564;50.920;11.612;2022-10-12T08:35:42;6.40;99.90
22795;DHT22;11564;50.920;11.612;2022-10-12T08:38:09;6.40;99.90
22795;DHT22;11564;50.920;11.612;2022-10-12T08:46:20;6.90;99.90
22795;DHT22;11564;50.920;11.612;2022-10-12T08:49:28;7.00;99.90
22795;DHT22;11564;50.920;11.612;2022-10-12T08:51:48;7.20;99.90
22795;DHT22;11564;50.920;11.612;2022-10-12T08:54:16;7.20;99.90
22795;DHT22;11564;50.920;11.612;2022-10-12T08:56:44;7.60;99.90
22795;DHT22;11564;50.920;11.612;2022-10-12T08:59:15;7.70;99.90
22795;DHT22;11564;50.920;11.612;2022-10-12T09:04:56;8.20;99.90
22795;DHT22;11564;50.920;11.612;2022-10-12T09:07:27;8.20;99.90
22795;DHT22;11564;50.920;11.612;2022-10-12T09:13:09;8.70;99.90
22795;DHT22;11564;50.920;11.612;2022-10-12T09:16:00;9.00;99.90
22795;DHT22;11564;50.920;11.612;2022-10-12T09:18:40;9.30;99.90
22795;DHT22;11564;50.920;11.612;2022-10-12T09:21:12;9.30;99.90
22795;DHT22;11564;50.920;11.612;2022-10-12T09:23:40;9.50;99.90
22795;DHT22;11564;50.920;11.612;2022-10-12T09:26:19;9.80;99.90
22795;DHT22;11564;50.920;11.612;2022-10-12T09:28:52;10.00;99.90
22795;DHT22;11564;50.920;11.612;2022-10-12T09:34:07;10.10;99.90
22795;DHT22;11564;50.920;11.612;2022-10-12T09:36:35;9.90;99.90
22795;DHT22;11564;50.920;11.612;2022-10-12T09:39:04;10.00;99.70
22795;DHT22;11564;50.920;11.612;2022-10-12T09:41:34;10.10;99.90
22795;DHT22;11564;50.920;11.612;2022-10-12T09:44:02;10.20;99.90
22795;DHT22;11564;50.920;11.612;2022-10-12T09:49:00;10.50;99.40
22795;DHT22;11564;50.920;11.612;2022-10-12T09:51:27;10.60;99.30
22795;DHT22;11564;50.920;11.612;2022-10-12T09:53:55;10.80;97.90
22795;DHT22;11564;50.920;11.612;2022-10-12T09:59:26;11.30;97.60
22795;DHT22;11564;50.920;11.612;2022-10-12T10:01:57;11.40;98.10
22795;DHT22;11564;50.920;11.612;2022-10-12T10:04:25;11.60;97.30
22795;DHT22;11564;50.920;11.612;2022-10-12T10:06:51;11.90;97.10
22795;DHT22;11564;50.920;11.612;2022-10-12T10:09:33;12.00;96.50
22795;DHT22;11564;50.920;11.612;2022-10-12T10:12:23;12.20;96.40
22795;DHT22;11564;50.920;11.612;2022-10-12T10:14:52;12.40;95.90
22795;DHT22;11564;50.920;11.612;2022-10-12T10:17:32;12.60;95.10
22795;DHT22;11564;50.920;11.612;2022-10-12T10:20:01;12.50;94.90
22795;DHT22;11564;50.920;11.612;2022-10-12T10:22:28;12.40;95.10
22795;DHT22;11564;50.920;11.612;2022-10-12T10:24:56;12.50;96.10
22795;DHT22;11564;50.920;11.612;2022-10-12T10:27:37;12.80;95.30
22795;DHT22;11564;50.920;11.612;2022-10-12T10:32:42;12.60;93.90
22795;DHT22;11564;50.920;11.612;2022-10-12T10:37:48;12.80;94.90
22795;DHT22;11564;50.920;11.612;2022-10-12T10:40:29;13.00;94.40
22795;DHT22;11564;50.920;11.612;2022-10-12T10:42:57;13.20;94.40
22795;DHT22;11564;50.920;11.612;2022-10-12T10:45:26;13.50;93.70
22795;DHT22;11564;50.920;11.612;2022-10-12T10:47:53;13.70;93.40
22795;DHT22;11564;50.920;11.612;2022-10-12T10:50:37;13.90;92.80
22795;DHT22;11564;50.920;11.612;2022-10-12T10:53:18;13.90;92.80
22795;DHT22;11564;50.920;11.612;2022-10-12T10:58:49;13.60;92.70
22795;DHT22;11564;50.920;11.612;2022-10-12T11:01:36;13.70;93.60
22795;DHT22;11564;50.920;11.612;2022-10-12T11:04:08;13.80;92.10
22795;DHT22;11564;50.920;11.612;2022-10-12T11:06:43;14.20;91.90
22795;DHT22;11564;50.920;11.612;2022-10-12T11:09:23;14.20;91.50
22795;DHT22;11564;50.920;11.612;2022-10-12T11:14:30;14.40;91.30
22795;DHT22;11564;50.920;11.612;2022-10-12T11:17:03;14.60;91.10
22795;DHT22;11564;50.920;11.612;2022-10-12T11:19:40;14.90;91.60
22795;DHT22;11564;50.920;11.612;2022-10-12T11:22:29;15.00;90.90
22795;DHT22;11564;50.920;11.612;2022-10-12T11:27:44;15.70;89.60
22795;DHT22;11564;50.920;11.612;2022-10-12T11:30:16;16.00;90.70
22795;DHT22;11564;50.920;11.612;2022-10-12T11:32:48;16.50;90.00
22795;DHT22;11564;50.920;11.612;2022-10-12T11:35:26;16.70;89.40
22795;DHT22;11564;50.920;11.612;2022-10-12T11:37:58;16.90;88.00
22795;DHT22;11564;50.920;11.612;2022-10-12T11:40:28;17.20;86.80
22795;DHT22;11564;50.920;11.612;2022-10-12T11:42:59;16.60;88.30
22795;DHT22;11564;50.920;11.612;2022-10-12T11:45:31;17.20;88.80
22795;DHT22;11564;50.920;11.612;2022-10-12T11:48:10;17.60;86.90
22795;DHT22;11564;50.920;11.612;2022-10-12T11:50:47;17.70;84.90
22795;DHT22;11564;50.920;11.612;2022-10-12T11:53:22;18.00;84.30
22795;DHT22;11564;50.920;11.612;2022-10-12T11:56:25;17.70;83.20
22795;DHT22;11564;50.920;11.612;2022-10-12T11:58:57;18.20;82.70
22795;DHT22;11564;50.920;11.612;2022-10-12T12:01:45;18.50;82.60
22795;DHT22;11564;50.920;11.612;2022-10-12T12:04:32;19.50;79.70
22795;DHT22;11564;50.920;11.612;2022-10-12T12:07:01;19.50;78.70
22795;DHT22;11564;50.920;11.612;2022-10-12T12:12:22;20.50;77.40
22795;DHT22;11564;50.920;11.612;2022-10-12T12:19:44;22.80;68.80
22795;DHT22;11564;50.920;11.612;2022-10-12T12:27:36;24.60;64.60
22795;DHT22;11564;50.920;11.612;2022-10-12T12:32:47;26.90;58.20
22795;DHT22;11564;50.920;11.612;2022-10-12T12:35:23;29.20;56.20
22795;DHT22;11564;50.920;11.612;2022-10-12T12:38:02;31.30;51.40
22795;DHT22;11564;50.920;11.612;2022-10-12T12:40:28;31.60;49.00
22795;DHT22;11564;50.920;11.612;2022-10-12T12:46:05;30.60;47.00
22795;DHT22;11564;50.920;11.612;2022-10-12T12:51:32;31.30;47.40
22795;DHT22;11564;50.920;11.612;2022-10-12T12:54:03;29.90;47.40
22795;DHT22;11564;50.920;11.612;2022-10-12T12:56:33;30.30;49.10
22795;DHT22;11564;50.920;11.612;2022-10-12T13:10:27;33.50;43.10
22795;DHT22;11564;50.920;11.612;2022-10-12T13:16:05;31.90;43.90
22795;DHT22;11564;50.920;11.612;2022-10-12T13:18:52;31.90;45.70
22795;DHT22;11564;50.920;11.612;2022-10-12T13:21:41;34.10;43.30
22795;DHT22;11564;50.920;11.612;2022-10-12T13:26:53;35.70;41.60
22795;DHT22;11564;50.920;11.612;2022-10-12T13:29:45;36.30;40.40
22795;DHT22;11564;50.920;11.612;2022-10-12T13:35:37;35.90;40.40
22795;DHT22;11564;50.920;11.612;2022-10-12T13:38:20;37.40;39.80
22795;DHT22;11564;50.920;11.612;2022-10-12T13:43:50;38.30;37.90
22795;DHT22;11564;50.920;11.612;2022-10-12T13:46:46;36.60;37.40
22795;DHT22;11564;50.920;11.612;2022-10-12T13:49:20;35.40;39.90
22795;DHT22;11564;50.920;11.612;2022-10-12T13:51:49;35.90;39.10
22795;DHT22;11564;50.920;11.612;2022-10-12T13:56:59;34.60;40.90
22795;DHT22;11564;50.920;11.612;2022-10-12T13:59:27;34.70;39.70
22795;DHT22;11564;50.920;11.612;2022-10-12T14:01:56;35.50;39.50
22795;DHT22;11564;50.920;11.612;2022-10-12T14:04:27;34.20;39.90
22795;DHT22;11564;50.920;11.612;2022-10-12T14:07:05;33.70;41.50
22795;DHT22;11564;50.920;11.612;2022-10-12T14:09:44;34.80;39.20
22795;DHT22;11564;50.920;11.612;2022-10-12T14:12:11;35.40;38.90
22795;DHT22;11564;50.920;11.612;2022-10-12T14:14:38;34.80;39.40
22795;DHT22;11564;50.920;11.612;2022-10-12T14:17:05;34.70;39.10
22795;DHT22;11564;50.920;11.612;2022-10-12T14:19:44;34.50;39.20
22795;DHT22;11564;50.920;11.612;2022-10-12T14:24:51;34.10;39.40
22795;DHT22;11564;50.920;11.612;2022-10-12T14:27:27;33.50;40.30
22795;DHT22;11564;50.920;11.612;2022-10-12T14:30:05;34.30;42.20
22795;DHT22;11564;50.920;11.612;2022-10-12T14:32:40;35.10;39.10
22795;DHT22;11564;50.920;11.612;2022-10-12T14:35:21;35.00;39.80
22795;DHT22;11564;50.920;11.612;2022-10-12T14:37:49;35.10;42.20
22795;DHT22;11564;50.920;11.612;2022-10-12T14:40:28;35.20;41.90
22795;DHT22;11564;50.920;11.612;2022-10-12T14:43:40;35.00;43.20
22795;DHT22;11564;50.920;11.612;2022-10-12T14:45:49;34.90;41.70
22795;DHT22;11564;50.920;11.612;2022-10-12T14:48:18;35.40;41.70
22795;DHT22;11564;50.920;11.612;2022-10-12T14:50:44;34.50;42.30
22795;DHT22;11564;50.920;11.612;2022-10-12T14:53:11;34.20;43.60
22795;DHT22;11564;50.920;11.612;2022-10-12T14:55:38;33.60;44.30
22795;DHT22;11564;50.920;11.612;2022-10-12T14:58:05;33.80;44.90
22795;DHT22;11564;50.920;11.612;2022-10-12T15:00:33;32.70;46.00
22795;DHT22;11564;50.920;11.612;2022-10-12T15:03:03;31.20;48.50
22795;DHT22;11564;50.920;11.612;2022-10-12T15:05:30;29.90;50.00
22795;DHT22;11564;50.920;11.612;2022-10-12T15:07:56;27.80;53.00
22795;DHT22;11564;50.920;11.612;2022-10-12T15:10:23;27.60;54.70
22795;DHT22;11564;50.920;11.612;2022-10-12T15:12:50;26.90;54.90
22795;DHT22;11564;50.920;11.612;2022-10-12T15:15:40;25.80;56.70
22795;DHT22;11564;50.920;11.612;2022-10-12T15:18:07;25.10;58.80
22795;DHT22;11564;50.920;11.612;2022-10-12T15:20:33;24.90;59.40
22795;DHT22;11564;50.920;11.612;2022-10-12T15:22:59;24.50;60.80
22795;DHT22;11564;50.920;11.612;2022-10-12T15:28:00;23.00;63.30
22795;DHT22;11564;50.920;11.612;2022-10-12T15:30:26;22.30;65.40
22795;DHT22;11564;50.920;11.612;2022-10-12T15:32:52;21.80;66.70
22795;DHT22;11564;50.920;11.612;2022-10-12T15:35:25;21.10;68.20
22795;DHT22;11564;50.920;11.612;2022-10-12T15:37:51;20.30;70.20
22795;DHT22;11564;50.920;11.612;2022-10-12T15:40:19;19.50;72.20
22795;DHT22;11564;50.920;11.612;2022-10-12T15:42:45;19.10;73.80
22795;DHT22;11564;50.920;11.612;2022-10-12T15:45:13;18.50;75.00
22795;DHT22;11564;50.920;11.612;2022-10-12T15:47:40;17.80;76.90
22795;DHT22;11564;50.920;11.612;2022-10-12T15:50:06;16.90;79.90
22795;DHT22;11564;50.920;11.612;2022-10-12T15:52:31;16.10;82.70
22795;DHT22;11564;50.920;11.612;2022-10-12T15:54:57;15.40;85.00
22795;DHT22;11564;50.920;11.612;2022-10-12T15:59:49;15.00;87.60
22795;DHT22;11564;50.920;11.612;2022-10-12T16:02:16;14.70;88.10
22795;DHT22;11564;50.920;11.612;2022-10-12T16:04:42;14.40;89.30
22795;DHT22;11564;50.920;11.612;2022-10-12T16:07:08;14.10;90.10
22795;DHT22;11564;50.920;11.612;2022-10-12T16:09:33;13.70;90.70
22795;DHT22;11564;50.920;11.612;2022-10-12T16:11:59;13.50;91.00
22795;DHT22;11564;50.920;11.612;2022-10-12T16:14:24;13.40;91.30
22795;DHT22;11564;50.920;11.612;2022-10-12T16:16:50;13.10;91.80
22795;DHT22;11564;50.920;11.612;2022-10-12T16:19:15;12.90;92.10
22795;DHT22;11564;50.920;11.612;2022-10-12T16:21:41;12.70;92.50
22795;DHT22;11564;50.920;11.612;2022-10-12T16:24:06;12.50;92.70
22795;DHT22;11564;50.920;11.612;2022-10-12T16:26:32;12.40;93.10
22795;DHT22;11564;50.920;11.612;2022-10-12T16:28:57;12.20;93.50
22795;DHT22;11564;50.920;11.612;2022-10-12T16:31:23;11.90;93.70
22795;DHT22;11564;50.920;11.612;2022-10-12T16:33:48;11.90;94.20
22795;DHT22;11564;50.920;11.612;2022-10-12T16:36:15;11.70;94.40
22795;DHT22;11564;50.920;11.612;2022-10-12T16:38:42;11.60;94.60
22795;DHT22;11564;50.920;11.612;2022-10-12T16:41:13;11.40;94.90
22795;DHT22;11564;50.920;11.612;2022-10-12T16:43:39;11.30;95.00
22795;DHT22;11564;50.920;11.612;2022-10-12T16:46:05;11.30;95.20
22795;DHT22;11564;50.920;11.612;2022-10-12T16:48:31;11.10;95.50
22795;DHT22;11564;50.920;11.612;2022-10-12T16:50:57;11.00;95.80
22795;DHT22;11564;50.920;11.612;2022-10-12T16:53:22;10.90;96.10
22795;DHT22;11564;50.920;11.612;2022-10-12T16:55:48;10.80;96.70
22795;DHT22;11564;50.920;11.612;2022-10-12T16:58:13;10.60;96.70
22795;DHT22;11564;50.920;11.612;2022-10-12T17:00:39;10.50;96.90
22795;DHT22;11564;50.920;11.612;2022-10-12T17:03:06;10.40;97.20
22795;DHT22;11564;50.920;11.612;2022-10-12T17:05:33;10.30;97.40
22795;DHT22;11564;50.920;11.612;2022-10-12T17:07:59;10.20;97.60
22795;DHT22;11564;50.920;11.612;2022-10-12T17:10:24;10.10;97.80
22795;DHT22;11564;50.920;11.612;2022-10-12T17:12:50;9.90;98.50
22795;DHT22;11564;50.920;11.612;2022-10-12T17:15:15;9.90;98.80
22795;DHT22;11564;50.920;11.612;2022-10-12T17:17:41;9.80;99.10
22795;DHT22;11564;50.920;11.612;2022-10-12T17:20:07;9.70;99.20
22795;DHT22;11564;50.920;11.612;2022-10-12T17:22:32;9.60;99.70
22795;DHT22;11564;50.920;11.612;2022-10-12T17:24:59;9.50;99.90
22795;DHT22;11564;50.920;11.612;2022-10-12T17:27:27;9.40;99.90
22795;DHT22;11564;50.920;11.612;2022-10-12T17:29:52;9.30;99.90
22795;DHT22;11564;50.920;11.612;2022-10-12T17:32:19;9.30;99.90